Aeroporto :
LOGIN :

Iscrizione | Disclaimer

   EN    FR    IT 

 










Sommario :    VFR   VFR Marginale   IFR   IFR Intensivo   IFR Molto Intensivo
Visibilità : 
Base nubi : 
>= 8 km
>= 3000ft
5 / 8 km
1000 / 3000 ft
1500m / 5 km
500 / 1000 ft
800 / 1500m
200 / 500 ft
< 800m
< 200 ft
Simboli :   Temporali  Nebbia  Neve Forte  Precipitazioni Forti  Vento > 20 kt
SIGMETs :   Varie  Temporali  Ghiacco  Turbolenza  Onda orograficha  Ceneri Vulcaniche






- Altitudine del aeroporto : 32 ft
- Codice IATA : NRK


ESSP - Norrköping

ULTIMO METAR :
  • 231450Z AUTO 25018KT 9999 BKN024/// 06/02 Q0988

METARs OBSOLETI :
  • 231420Z AUTO 25017KT 9999 FEW026/// SCT043/// 06/02 Q0988
  • 231350Z AUTO 26018KT 9999 SCT030/// BKN046/// 08/01 Q0988
  • 231320Z AUTO 27017KT 9999 FEW034/// SCT044/// 08/01 Q0988
  • 231250Z AUTO 26020KT 9999 SCT036/// 07/00 Q0988
  • 231220Z AUTO 27021G31KT 9999 BKN037/// OVC048/// 09/00 Q0989

Previsioni scadute.



MetMap, La meteo Aeronautica in un colpo d'occhio ! - Copyright ORBIFLY Dicembre 2007 - Disclaimer

ORBIFLY MET'MAP TEAM :

Programmazione e sviluppo : Alexandra Zaïnal
Concezione : Baudouin d'Aumeries
Aiuto per la programmazione : Marc-Olivier Méhu
Supporto tecnico e logistico : Manuel Goepfert
Aiuto per la traduzione : Arnaldo La Scala

Contatto : metmap@orbifly.com




FONTI E CREDITI :

   NOAA